createdAt,value
2023-04-02T00:02:59.576Z,7.34
2023-04-02T00:08:10.287Z,7.34
2023-04-02T00:13:12.656Z,7.35
2023-04-02T00:18:22.298Z,7.31
2023-04-02T00:23:25.005Z,7.17
2023-04-02T00:28:27.510Z,6.81
2023-04-02T00:33:32.224Z,6.23
2023-04-02T00:38:36.092Z,6.02
2023-04-02T00:43:39.938Z,6.02
2023-04-02T00:48:51.652Z,6.12
2023-04-02T00:53:57.880Z,6.21
2023-04-02T00:59:01.185Z,6.28
2023-04-02T01:04:06.010Z,6.35
2023-04-02T01:09:14.653Z,6.48
2023-04-02T01:14:36.958Z,6.56
2023-04-02T01:20:07.798Z,6.67
2023-04-02T01:25:18.704Z,6.74
2023-04-02T01:30:22.294Z,6.80
2023-04-02T01:35:28.261Z,6.85
2023-04-02T01:40:33.948Z,6.83
2023-04-02T01:45:37.030Z,6.76
2023-04-02T01:50:41.975Z,6.63
2023-04-02T01:55:59.861Z,6.57
2023-04-02T02:01:24.811Z,6.44
2023-04-02T02:06:28.835Z,6.38
2023-04-02T02:11:33.889Z,6.37
2023-04-02T02:16:42.163Z,6.40
2023-04-02T02:21:52.447Z,6.43
2023-04-02T02:27:05.254Z,6.44
2023-04-02T02:32:12.129Z,6.48
2023-04-02T02:37:24.080Z,6.46
2023-04-02T02:42:39.160Z,6.45
2023-04-02T02:47:44.270Z,6.47
2023-04-02T02:52:53.620Z,6.47
2023-04-02T02:58:27.806Z,6.54
2023-04-02T03:03:41.189Z,6.64
2023-04-02T03:08:54.775Z,6.68
2023-04-02T03:14:36.951Z,6.62
2023-04-02T03:19:53.149Z,6.67
2023-04-02T03:25:00.967Z,6.65
2023-04-02T03:30:23.634Z,6.62
2023-04-02T03:35:53.929Z,6.71
2023-04-02T03:41:47.078Z,6.84
2023-04-02T03:47:01.843Z,6.89
2023-04-02T03:52:12.313Z,6.98
2023-04-02T03:57:27.415Z,7.15
2023-04-02T04:02:53.447Z,7.26
2023-04-02T04:08:03.803Z,7.43
2023-04-02T04:13:12.649Z,7.58
2023-04-02T04:18:40.266Z,7.65
2023-04-02T04:23:51.878Z,7.66
2023-04-02T04:29:14.213Z,7.73
2023-04-02T04:34:42.537Z,7.73
2023-04-02T04:40:03.309Z,7.70
2023-04-02T04:45:30.286Z,7.72
2023-04-02T04:50:39.093Z,7.83
2023-04-02T04:55:49.209Z,7.98
2023-04-02T05:01:00.504Z,8.05
2023-04-02T05:06:13.209Z,8.16
2023-04-02T05:11:32.422Z,8.25
2023-04-02T05:16:52.075Z,8.35
2023-04-02T05:22:19.504Z,8.50
2023-04-02T05:27:47.347Z,8.64
2023-04-02T05:33:18.162Z,8.64
2023-04-02T05:38:28.851Z,8.59
2023-04-02T05:43:35.119Z,8.65
2023-04-02T05:48:43.646Z,8.69
2023-04-02T05:53:59.851Z,8.70
2023-04-02T05:59:16.440Z,8.74
2023-04-02T06:04:34.609Z,8.84
2023-04-02T06:09:44.851Z,9.01
2023-04-02T06:14:48.216Z,9.24
2023-04-02T06:19:56.489Z,9.36
2023-04-02T06:25:06.402Z,9.51
2023-04-02T06:30:26.512Z,9.66
2023-04-02T06:35:29.603Z,9.78
2023-04-02T06:40:52.808Z,9.94
2023-04-02T06:46:51.803Z,10.14
2023-04-02T06:51:56.816Z,10.31
2023-04-02T06:57:00.884Z,10.49
2023-04-02T07:02:40.140Z,10.97
2023-04-02T07:07:46.290Z,11.10
2023-04-02T07:12:49.938Z,11.43
2023-04-02T07:17:53.581Z,11.59
2023-04-02T07:22:57.333Z,11.97
2023-04-02T07:27:59.955Z,12.17
2023-04-02T07:33:02.524Z,12.07
2023-04-02T07:38:04.995Z,12.31
2023-04-02T07:43:07.817Z,12.42
2023-04-02T07:48:14.340Z,12.43
2023-04-02T07:53:32.517Z,12.48
2023-04-02T07:58:34.990Z,12.60
2023-04-02T08:03:37.654Z,12.74
2023-04-02T08:08:40.700Z,12.74
2023-04-02T08:13:43.563Z,13.07
2023-04-02T08:18:47.947Z,12.84
2023-04-02T08:23:50.762Z,13.11
2023-04-02T08:28:53.315Z,13.37
2023-04-02T08:33:57.090Z,13.65
2023-04-02T08:38:59.733Z,13.60
2023-04-02T08:44:32.620Z,13.46
2023-04-02T08:50:16.624Z,13.61
2023-04-02T08:55:26.270Z,13.40
2023-04-02T09:00:49.538Z,13.56
2023-04-02T09:05:52.961Z,13.65
2023-04-02T09:11:08.828Z,13.54
2023-04-02T09:16:15.025Z,13.53
2023-04-02T09:21:32.543Z,13.36
2023-04-02T09:26:35.340Z,13.26
2023-04-02T09:31:45.402Z,13.35
2023-04-02T09:36:48.193Z,13.78
2023-04-02T09:42:02.814Z,13.52
2023-04-02T09:47:25.380Z,13.35
2023-04-02T09:52:30.095Z,13.38
2023-04-02T09:57:33.665Z,13.68
2023-04-02T10:02:37.101Z,13.79
2023-04-02T10:07:46.170Z,13.91
2023-04-02T10:13:00.425Z,13.92
2023-04-02T10:18:35.302Z,14.25
2023-04-02T10:23:37.769Z,14.55
2023-04-02T10:29:28.095Z,14.84
2023-04-02T10:34:54.541Z,14.68
2023-04-02T10:40:34.296Z,14.77
2023-04-02T10:46:02.555Z,14.58
2023-04-02T10:51:21.950Z,14.87
2023-04-02T10:56:26.574Z,15.19
2023-04-02T11:01:31.296Z,15.05
2023-04-02T11:06:43.563Z,15.34
2023-04-02T11:11:51.647Z,15.60
2023-04-02T11:16:58.813Z,15.71
2023-04-02T11:22:14.160Z,16.11
2023-04-02T11:27:33.886Z,16.57
2023-04-02T11:32:45.467Z,16.60
2023-04-02T11:43:32.926Z,16.26
2023-04-02T11:48:36.804Z,16.79
2023-04-02T11:53:43.229Z,17.10
2023-04-02T11:59:00.648Z,17.11
2023-04-02T12:04:24.038Z,17.52
2023-04-02T12:09:28.248Z,17.36
2023-04-02T12:14:38.656Z,17.70
2023-04-02T12:19:41.581Z,17.69
2023-04-02T12:24:48.595Z,17.94
2023-04-02T12:29:52.536Z,18.08
2023-04-02T12:34:57.880Z,17.87
2023-04-02T12:40:07.498Z,17.85
2023-04-02T12:45:29.819Z,18.15
2023-04-02T12:50:34.228Z,18.18
2023-04-02T12:55:37.201Z,18.09
2023-04-02T13:00:40.191Z,18.07
2023-04-02T13:05:51.171Z,18.46
2023-04-02T13:11:02.170Z,18.54
2023-04-02T13:16:16.143Z,18.76
2023-04-02T13:21:21.502Z,19.10
2023-04-02T13:26:27.385Z,19.55
2023-04-02T13:31:31.728Z,19.82
2023-04-02T13:36:34.424Z,19.58
2023-04-02T13:41:48.958Z,19.60
2023-04-02T13:46:52.788Z,19.21
2023-04-02T13:52:00.576Z,18.73
2023-04-02T13:57:03.559Z,18.63
2023-04-02T14:02:17.414Z,18.13
2023-04-02T14:08:04.387Z,17.54
2023-04-02T14:13:33.854Z,17.26
2023-04-02T14:18:55.105Z,17.41
2023-04-02T14:24:09.768Z,17.28
2023-04-02T14:29:16.687Z,17.23
2023-04-02T14:34:58.407Z,16.90
2023-04-02T14:40:23.920Z,16.08
2023-04-02T14:45:58.188Z,15.32
2023-04-02T14:51:17.822Z,14.81
2023-04-02T14:56:22.226Z,14.82
2023-04-02T15:01:34.552Z,14.61
2023-04-02T15:06:52.801Z,14.18
2023-04-02T15:12:03.897Z,13.73
2023-04-02T15:22:43.933Z,13.19
2023-04-02T15:27:52.874Z,12.94
2023-04-02T15:33:16.831Z,12.71
2023-04-02T15:38:42.923Z,12.51
2023-04-02T15:43:57.811Z,12.35
2023-04-02T15:49:09.416Z,12.19
2023-04-02T15:54:27.956Z,12.02
2023-04-02T15:59:54.640Z,11.90
2023-04-02T16:05:18.973Z,11.77
2023-04-02T16:10:41.850Z,11.71
2023-04-02T16:15:56.302Z,11.64
2023-04-02T16:21:03.203Z,11.56
2023-04-02T16:26:39.626Z,11.48
2023-04-02T16:31:55.622Z,11.40
2023-04-02T16:37:11.046Z,11.33
2023-04-02T16:42:43.562Z,11.23
2023-04-02T16:48:00.480Z,11.15
2023-04-02T16:53:18.543Z,11.04
2023-04-02T16:58:49.308Z,10.96
2023-04-02T17:04:15.027Z,10.89
2023-04-02T17:09:39.189Z,10.82
2023-04-02T17:14:57.868Z,10.69
2023-04-02T17:20:02.103Z,10.63
2023-04-02T17:25:07.886Z,10.50
2023-04-02T17:30:39.458Z,10.39
2023-04-02T17:35:51.189Z,10.25
2023-04-02T17:41:05.981Z,10.21
2023-04-02T17:46:17.929Z,10.15
2023-04-02T17:51:25.789Z,10.13
2023-04-02T17:56:39.351Z,10.03
2023-04-02T18:01:55.466Z,9.98
2023-04-02T18:07:39.688Z,9.87
2023-04-02T18:12:58.382Z,9.87
2023-04-02T18:18:19.291Z,9.79
2023-04-02T18:23:56.761Z,9.79
2023-04-02T18:29:21.026Z,9.74
2023-04-02T18:34:40.415Z,9.72
2023-04-02T18:40:03.771Z,9.73
2023-04-02T18:45:14.860Z,9.72
2023-04-02T18:50:29.677Z,9.70
2023-04-02T18:55:32.633Z,9.64
2023-04-02T19:00:39.387Z,9.63
2023-04-02T19:05:49.802Z,9.67
2023-04-02T19:10:58.183Z,9.73
2023-04-02T19:16:31.537Z,9.72
2023-04-02T19:21:40.263Z,9.69
2023-04-02T19:26:55.482Z,9.70
2023-04-02T19:32:07.087Z,9.73
2023-04-02T19:37:36.890Z,9.84
2023-04-02T19:42:51.815Z,9.88
2023-04-02T19:47:55.717Z,9.88
2023-04-02T19:52:58.726Z,9.83
2023-04-02T19:58:17.343Z,9.83
2023-04-02T20:03:22.530Z,9.79
2023-04-02T20:08:25.159Z,9.73
2023-04-02T20:13:28.076Z,9.53
2023-04-02T20:18:32.744Z,9.54
2023-04-02T20:23:36.555Z,9.42
2023-04-02T20:28:39.497Z,9.22
2023-04-02T20:33:42.783Z,9.06
2023-04-02T20:38:45.966Z,8.89
2023-04-02T20:43:50.131Z,8.75
2023-04-02T20:48:53.021Z,8.62
2023-04-02T20:53:55.878Z,8.48
2023-04-02T20:58:58.430Z,8.31
2023-04-02T21:04:04.212Z,8.23
2023-04-02T21:09:09.548Z,8.14
2023-04-02T21:14:12.499Z,7.97
2023-04-02T21:19:15.066Z,7.92
2023-04-02T21:24:17.537Z,7.84
2023-04-02T21:29:20.392Z,7.73
2023-04-02T21:34:23.016Z,7.65
2023-04-02T21:39:26.110Z,7.52
2023-04-02T21:44:28.779Z,7.48
2023-04-02T21:49:34.414Z,7.37
2023-04-02T21:54:36.831Z,7.30
2023-04-02T21:59:39.215Z,7.15
2023-04-02T22:04:42.209Z,6.99
2023-04-02T22:09:44.733Z,6.94
2023-04-02T22:14:47.724Z,6.95
2023-04-02T22:19:50.517Z,6.93
2023-04-02T22:24:52.946Z,6.88
2023-04-02T22:29:55.598Z,6.89
2023-04-02T22:35:00.461Z,6.88
2023-04-02T22:40:03.107Z,6.85
2023-04-02T22:45:06.750Z,6.85
2023-04-02T22:50:09.692Z,6.85
2023-04-02T22:55:18.245Z,6.84
2023-04-02T23:00:21.201Z,6.78
2023-04-02T23:05:23.834Z,6.75
2023-04-02T23:10:28.841Z,6.77
2023-04-02T23:15:33.094Z,6.76
2023-04-02T23:20:35.835Z,6.79
2023-04-02T23:25:38.634Z,6.84
2023-04-02T23:30:44.702Z,6.85
2023-04-02T23:35:47.419Z,6.88
2023-04-02T23:40:49.877Z,6.92
2023-04-02T23:45:52.451Z,6.90
2023-04-02T23:50:54.979Z,6.90
2023-04-02T23:55:57.900Z,6.87
